createdAt,value
2022-08-12T06:43:27.780Z,3.00
2022-08-12T06:46:16.350Z,2.65
2022-08-12T06:48:45.043Z,2.90
2022-08-12T06:51:13.655Z,3.33
2022-08-12T06:53:43.550Z,2.90
2022-08-12T06:56:12.733Z,2.60
2022-08-12T06:58:44.532Z,2.63
2022-08-12T07:01:13.182Z,2.78
2022-08-12T07:03:41.890Z,2.47
2022-08-12T07:06:11.646Z,2.10
2022-08-12T07:08:40.412Z,2.10
2022-08-12T07:11:13.256Z,2.53
2022-08-12T07:14:02.483Z,2.30
2022-08-12T07:16:49.791Z,2.33
2022-08-12T07:19:18.309Z,2.45
2022-08-12T07:21:59.927Z,2.30
2022-08-12T07:24:31.450Z,2.45
2022-08-12T07:27:00.250Z,1.83
2022-08-12T07:30:03.793Z,2.25
2022-08-12T07:32:20.045Z,2.45
2022-08-12T07:34:49.759Z,1.90
2022-08-12T07:37:18.354Z,1.90
2022-08-12T07:39:50.328Z,2.05
2022-08-12T07:42:28.213Z,2.05
2022-08-12T07:44:59.132Z,1.95
2022-08-12T07:47:27.964Z,1.83
2022-08-12T07:50:04.751Z,1.95
2022-08-12T07:52:35.551Z,2.00
2022-08-12T07:55:05.129Z,1.65
2022-08-12T07:57:33.868Z,2.00
2022-08-12T08:00:05.507Z,1.90
2022-08-12T08:02:37.147Z,1.95
2022-08-12T08:05:06.838Z,1.77
2022-08-12T08:07:35.434Z,1.80
2022-08-12T08:10:07.384Z,1.50
2022-08-12T08:12:53.545Z,1.52
2022-08-12T08:15:38.513Z,2.00
2022-08-12T08:18:25.645Z,1.73
2022-08-12T08:20:54.718Z,1.85
2022-08-12T08:23:34.826Z,1.70
2022-08-12T08:26:03.686Z,1.88
2022-08-12T08:28:36.522Z,1.75
2022-08-12T08:31:06.546Z,1.45
2022-08-12T08:34:01.531Z,1.38
2022-08-12T08:36:24.397Z,1.70
2022-08-12T08:38:58.462Z,1.70
2022-08-12T08:42:16.939Z,1.60
2022-08-12T08:44:38.151Z,1.65
2022-08-12T08:47:08.794Z,1.75
2022-08-12T08:49:37.820Z,1.40
2022-08-12T08:52:07.207Z,1.70
2022-08-12T08:54:37.772Z,1.88
2022-08-12T08:57:08.241Z,1.40
2022-08-12T08:59:37.316Z,1.80
2022-08-12T09:02:07.607Z,1.88
2022-08-12T09:05:12.985Z,1.60
2022-08-12T09:07:43.888Z,1.58
2022-08-12T09:10:30.547Z,1.50
2022-08-12T09:13:23.151Z,1.45
2022-08-12T09:15:57.571Z,1.73
2022-08-12T09:18:33.342Z,1.50
2022-08-12T09:21:03.846Z,1.42
2022-08-12T09:23:59.787Z,1.48
2022-08-12T09:26:28.386Z,1.65
2022-08-12T09:28:58.079Z,1.40
2022-08-12T09:32:02.850Z,1.60
2022-08-12T09:34:26.180Z,1.60
2022-08-12T09:37:18.747Z,1.40
2022-08-12T09:40:03.590Z,1.35
2022-08-12T09:43:15.524Z,1.70
2022-08-12T09:46:06.891Z,1.40
2022-08-12T09:48:36.567Z,1.20
2022-08-12T09:51:10.771Z,1.70
2022-08-12T09:54:08.824Z,1.40
2022-08-12T09:56:59.942Z,1.45
2022-08-12T10:00:12.618Z,1.38
2022-08-12T10:02:41.813Z,1.20
2022-08-12T10:05:01.703Z,1.15
2022-08-12T10:07:40.072Z,1.30
2022-08-12T10:10:24.252Z,1.20
2022-08-12T10:13:12.813Z,1.40
2022-08-12T10:16:02.206Z,1.20
2022-08-12T10:18:35.681Z,1.20
2022-08-12T10:21:07.555Z,1.20
2022-08-12T10:23:40.124Z,1.30
2022-08-12T10:26:36.753Z,1.08
2022-08-12T10:30:37.197Z,1.30
2022-08-12T10:32:22.389Z,1.30
2022-08-12T10:35:05.984Z,1.15
2022-08-12T10:38:38.402Z,1.33
2022-08-12T10:40:31.505Z,1.10
2022-08-12T10:43:20.787Z,1.50
2022-08-12T10:45:54.157Z,1.15
2022-08-12T10:48:33.953Z,1.17
2022-08-12T10:52:03.367Z,1.38
2022-08-12T10:54:00.742Z,1.30
2022-08-12T10:56:34.285Z,1.10
2022-08-12T10:59:10.771Z,1.30
2022-08-12T11:04:18.991Z,1.10
2022-08-12T11:04:45.608Z,1.20
2022-08-12T11:08:38.249Z,1.10
2022-08-12T11:10:07.383Z,1.27
2022-08-12T11:12:58.713Z,1.13
2022-08-12T11:15:33.295Z,1.00
2022-08-12T11:18:17.908Z,1.30
2022-08-12T11:20:49.261Z,1.10
2022-08-12T11:23:25.362Z,1.15
2022-08-12T11:26:06.675Z,1.10
2022-08-12T11:28:39.048Z,1.17
2022-08-12T11:31:13.956Z,1.35
2022-08-12T11:34:05.996Z,1.02
2022-08-12T11:36:32.137Z,1.25
2022-08-12T11:39:04.148Z,1.30
2022-08-12T11:41:34.897Z,1.50
2022-08-12T11:44:35.630Z,1.27
2022-08-12T11:46:54.520Z,1.23
2022-08-12T11:49:32.040Z,1.30
2022-08-12T11:52:04.190Z,1.10
2022-08-12T11:54:50.818Z,1.70
2022-08-12T11:58:33.912Z,1.10
2022-08-12T12:02:01.351Z,1.10
2022-08-12T12:02:59.554Z,1.02
2022-08-12T12:05:28.573Z,1.08
2022-08-12T12:08:41.082Z,1.15
2022-08-12T12:10:57.205Z,1.23
2022-08-12T12:14:07.501Z,1.13
2022-08-12T12:16:16.403Z,0.90
2022-08-12T12:18:46.398Z,1.30
2022-08-12T12:21:15.695Z,1.20
2022-08-12T12:23:47.109Z,1.10
2022-08-12T12:26:35.382Z,1.30
2022-08-12T12:29:07.838Z,1.30
2022-08-12T12:32:09.293Z,1.10
2022-08-12T12:35:13.004Z,1.10
2022-08-12T12:38:04.554Z,1.20
2022-08-12T12:40:20.210Z,1.00
2022-08-12T12:43:00.591Z,1.02
2022-08-12T12:45:34.382Z,1.35
2022-08-12T12:48:05.596Z,1.27
2022-08-12T12:50:45.080Z,1.10
2022-08-12T12:54:06.783Z,1.00
2022-08-12T12:56:13.119Z,1.20
2022-08-12T12:58:43.540Z,1.00
2022-08-12T13:01:26.570Z,1.15
2022-08-12T13:04:01.978Z,1.08
2022-08-12T13:06:32.844Z,1.10
2022-08-12T13:09:03.889Z,1.10
2022-08-12T13:11:42.132Z,1.05
2022-08-12T13:14:29.064Z,1.20
2022-08-12T13:17:02.779Z,1.20
2022-08-12T13:19:46.574Z,1.27
2022-08-12T13:22:21.424Z,1.08
2022-08-12T13:24:55.982Z,1.13
2022-08-12T13:27:35.471Z,1.20
2022-08-12T13:30:06.474Z,1.05
2022-08-12T13:32:37.234Z,1.08
2022-08-12T13:35:19.951Z,1.20
2022-08-12T13:37:57.060Z,1.00
2022-08-12T13:40:26.528Z,1.10
2022-08-12T13:42:57.760Z,1.10
2022-08-12T13:45:26.998Z,1.33
2022-08-12T13:47:58.567Z,0.93
2022-08-12T13:50:32.508Z,0.95
2022-08-12T13:53:23.047Z,0.90
2022-08-12T13:55:59.464Z,1.17
2022-08-12T13:58:33.060Z,1.15
2022-08-12T14:01:05.850Z,1.20
2022-08-12T14:03:51.150Z,1.00
2022-08-12T14:06:21.119Z,1.30
2022-08-12T14:08:51.064Z,1.05
2022-08-12T14:11:25.203Z,1.05
2022-08-12T14:14:05.272Z,1.05
2022-08-12T14:16:48.926Z,0.95
2022-08-12T14:19:22.778Z,1.30
2022-08-12T14:21:59.040Z,0.98
2022-08-12T14:24:35.378Z,0.90
2022-08-12T14:27:08.969Z,1.05
2022-08-12T14:30:04.823Z,0.90
2022-08-12T14:32:35.930Z,1.10
2022-08-12T14:35:09.410Z,1.27
2022-08-12T14:37:56.196Z,1.20
2022-08-12T14:40:29.767Z,1.20
2022-08-12T14:42:59.332Z,1.05
2022-08-12T14:45:44.287Z,0.93
2022-08-12T14:48:17.175Z,1.20
2022-08-12T14:51:09.588Z,1.27
2022-08-12T14:59:56.341Z,1.10
2022-08-12T15:02:21.498Z,1.48
2022-08-12T15:04:59.143Z,1.40
2022-08-12T15:07:33.358Z,1.50
2022-08-12T15:10:13.375Z,1.20
2022-08-12T15:12:43.734Z,1.48
2022-08-12T15:15:12.858Z,1.33
2022-08-12T15:17:41.542Z,1.30
2022-08-12T15:20:28.011Z,1.30
2022-08-12T15:22:59.951Z,1.20
2022-08-12T15:25:28.775Z,1.00
2022-08-12T15:28:05.596Z,1.33
2022-08-12T15:30:37.177Z,1.10
2022-08-12T15:33:15.145Z,1.17
2022-08-12T15:35:50.480Z,1.20
2022-08-12T15:38:24.646Z,1.10
2022-08-12T15:40:54.123Z,1.30
2022-08-12T15:43:51.432Z,1.30
2022-08-12T15:46:15.182Z,1.10
2022-08-12T15:48:46.814Z,1.00
2022-08-12T15:51:59.094Z,1.27
2022-08-12T15:54:22.641Z,1.00
2022-08-12T15:57:05.522Z,1.13
2022-08-12T16:00:00.527Z,1.55
2022-08-12T16:02:29.299Z,1.02
2022-08-12T16:04:58.805Z,1.20
2022-08-12T16:07:30.178Z,1.20
2022-08-12T16:10:08.266Z,0.85
2022-08-12T16:12:43.523Z,1.20
2022-08-12T16:15:26.356Z,1.00
2022-08-12T16:18:18.828Z,1.30
2022-08-12T16:20:46.582Z,1.13
2022-08-12T16:23:36.372Z,1.10
2022-08-12T16:26:14.855Z,1.08
2022-08-12T16:28:47.391Z,1.20
2022-08-12T16:31:23.017Z,1.10
2022-08-12T16:33:58.953Z,1.20
2022-08-12T16:36:30.129Z,1.20
2022-08-12T16:39:01.703Z,1.20
2022-08-12T16:41:37.960Z,0.95
2022-08-12T16:44:09.214Z,1.15
2022-08-12T16:46:39.383Z,1.10
2022-08-12T16:49:13.962Z,1.30
2022-08-12T16:51:46.508Z,1.05
2022-08-12T16:54:18.491Z,1.30
2022-08-12T16:56:55.422Z,1.00
2022-08-12T16:59:52.886Z,1.00
2022-08-12T17:02:33.937Z,1.17
2022-08-12T17:05:04.680Z,0.93
2022-08-12T17:07:36.856Z,1.05
2022-08-12T17:10:06.499Z,1.20
2022-08-12T17:12:37.575Z,1.13
2022-08-12T17:15:50.772Z,1.00
2022-08-12T17:18:42.103Z,0.90
2022-08-12T17:20:48.815Z,1.40
2022-08-12T17:23:19.340Z,1.05
2022-08-12T17:25:50.274Z,1.30
2022-08-12T17:28:19.498Z,1.02
2022-08-12T17:30:57.375Z,1.20
2022-08-12T17:33:33.925Z,1.10
2022-08-12T17:36:05.786Z,0.95
2022-08-12T17:38:35.722Z,1.08
2022-08-12T17:41:22.702Z,0.90
2022-08-12T17:43:58.502Z,1.20
2022-08-12T17:46:33.760Z,1.10
2022-08-12T17:49:18.971Z,1.17
2022-08-12T17:52:02.633Z,0.90
2022-08-12T17:54:32.802Z,1.20
2022-08-12T17:57:01.619Z,1.00
2022-08-12T17:59:47.786Z,1.00
2022-08-12T18:02:17.829Z,0.90
2022-08-12T18:05:05.417Z,0.90
2022-08-12T18:07:39.508Z,0.90
2022-08-12T18:10:08.786Z,1.00
2022-08-12T18:12:48.702Z,0.90
2022-08-12T18:15:26.866Z,1.05
2022-08-12T18:18:16.775Z,0.77
2022-08-12T18:20:50.114Z,0.95
2022-08-12T18:23:23.778Z,0.90
2022-08-12T18:26:16.860Z,0.85
2022-08-12T18:28:48.325Z,0.93
2022-08-12T18:31:17.785Z,1.10
2022-08-12T18:33:47.475Z,0.95
2022-08-12T18:36:22.165Z,0.88
2022-08-12T18:38:55.759Z,1.20
2022-08-12T18:41:35.752Z,1.00
2022-08-12T18:44:09.476Z,1.08
2022-08-12T18:46:53.894Z,1.13
2022-08-12T18:49:31.619Z,1.33
2022-08-12T18:52:05.681Z,0.93
2022-08-12T18:54:54.064Z,1.13
2022-08-12T18:57:46.012Z,1.00
2022-08-12T19:00:18.773Z,1.10
2022-08-12T19:02:50.934Z,0.95
2022-08-12T19:05:19.727Z,1.13
2022-08-12T19:07:59.948Z,1.00
2022-08-12T19:10:29.408Z,1.10
2022-08-12T19:13:24.249Z,1.13
2022-08-12T19:15:54.719Z,0.98
2022-08-12T19:18:29.964Z,0.90
2022-08-12T19:21:06.276Z,1.30
2022-08-12T19:24:04.598Z,0.90
2022-08-12T19:26:33.084Z,1.40
2022-08-12T19:29:02.373Z,0.93
2022-08-12T19:31:58.480Z,1.00
2022-08-12T19:37:26.703Z,0.95
2022-08-12T19:40:08.669Z,1.00
2022-08-12T19:42:57.725Z,0.98
2022-08-12T19:45:42.022Z,1.10
2022-08-12T19:48:16.923Z,0.90
2022-08-12T19:50:49.828Z,1.10
2022-08-12T19:53:18.934Z,0.95
2022-08-12T19:55:50.718Z,1.25
2022-08-12T19:58:21.045Z,1.60
2022-08-12T20:00:53.565Z,1.10
2022-08-12T20:03:38.220Z,1.13
2022-08-12T20:06:15.792Z,1.00
2022-08-12T20:08:53.827Z,1.30
2022-08-12T20:12:13.201Z,1.30
2022-08-12T20:14:17.970Z,1.40
2022-08-12T20:16:53.155Z,1.30
2022-08-12T20:19:52.164Z,1.48
2022-08-12T20:22:24.918Z,1.02
2022-08-12T20:25:01.626Z,1.00
2022-08-12T20:28:02.824Z,1.20
2022-08-12T20:30:35.167Z,1.25
2022-08-12T20:33:17.646Z,1.10
2022-08-12T20:36:14.171Z,1.30
2022-08-12T20:38:46.037Z,1.35
2022-08-12T20:41:17.544Z,1.30
2022-08-12T20:43:51.765Z,1.50
2022-08-12T20:46:21.280Z,1.75
2022-08-12T20:48:55.230Z,1.70
2022-08-12T20:51:27.733Z,2.05
2022-08-12T20:53:59.443Z,2.30
2022-08-12T20:56:32.906Z,2.42
2022-08-12T20:59:05.452Z,2.33
2022-08-12T21:01:45.986Z,2.20
2022-08-12T21:04:35.215Z,1.85
2022-08-12T21:07:09.317Z,1.73
2022-08-12T21:09:41.566Z,2.28
2022-08-12T21:12:28.021Z,2.47
2022-08-12T21:15:16.943Z,2.20
2022-08-12T21:18:11.342Z,2.13
2022-08-12T21:20:52.530Z,2.17
2022-08-12T21:23:22.572Z,2.25
2022-08-12T21:25:52.426Z,2.08
2022-08-12T21:28:27.468Z,2.00
2022-08-12T21:32:37.681Z,1.63
2022-08-12T21:34:07.279Z,1.52
2022-08-12T21:36:39.843Z,1.50
2022-08-12T21:39:20.101Z,1.40
2022-08-12T21:41:51.892Z,1.38
2022-08-12T21:44:32.593Z,1.17
2022-08-12T21:47:20.917Z,1.20
2022-08-12T21:49:55.755Z,1.40
2022-08-12T21:52:40.743Z,1.27
2022-08-12T21:55:18.119Z,1.13
2022-08-12T21:57:53.913Z,1.23
2022-08-12T22:00:35.053Z,1.30
2022-08-12T22:04:01.503Z,1.08
2022-08-12T22:06:31.135Z,1.10
2022-08-12T22:09:16.283Z,1.42
2022-08-12T22:11:56.594Z,2.50
2022-08-12T22:14:28.568Z,2.47
2022-08-12T22:16:57.730Z,2.72
2022-08-12T22:19:27.721Z,2.60
2022-08-12T22:21:58.415Z,3.10
2022-08-12T22:24:29.975Z,2.80
2022-08-12T22:27:17.859Z,2.20
2022-08-12T22:30:06.851Z,2.15
2022-08-12T22:32:38.656Z,2.08
2022-08-12T22:35:29.349Z,2.13
2022-08-12T22:37:58.825Z,1.70
2022-08-12T22:40:27.511Z,1.67
2022-08-12T22:43:15.696Z,1.60
2022-08-12T22:46:02.276Z,1.15
2022-08-12T22:48:30.949Z,1.30
2022-08-12T22:51:00.992Z,1.23
2022-08-12T22:53:36.201Z,1.27
2022-08-12T22:56:07.115Z,1.48
2022-08-12T22:58:40.171Z,1.63
2022-08-12T23:01:11.105Z,1.30
2022-08-12T23:03:49.157Z,1.10
2022-08-12T23:06:21.323Z,1.33
2022-08-12T23:08:50.733Z,1.10
2022-08-12T23:11:23.610Z,1.00
2022-08-12T23:13:56.785Z,1.00
2022-08-12T23:16:31.854Z,1.08
2022-08-12T23:19:09.599Z,1.10
2022-08-12T23:22:04.198Z,1.10
2022-08-12T23:24:37.097Z,0.90
2022-08-12T23:27:50.770Z,1.00
2022-08-12T23:30:18.846Z,0.90
2022-08-12T23:32:54.561Z,0.90
2022-08-12T23:35:28.423Z,0.93
2022-08-12T23:38:18.986Z,0.80
2022-08-12T23:41:01.198Z,0.90
2022-08-12T23:43:39.112Z,0.80
2022-08-12T23:46:09.220Z,0.90
2022-08-12T23:48:38.189Z,0.95
2022-08-12T23:51:22.793Z,0.77
2022-08-12T23:53:56.194Z,1.02
2022-08-12T23:56:25.427Z,0.80
2022-08-12T23:58:57.483Z,1.13
